createdAt,value
2019-06-15T00:00:16.688Z,12.10
2019-06-15T00:01:21.713Z,3.52
2019-06-15T00:02:26.098Z,4.08
2019-06-15T00:03:31.142Z,4.10
2019-06-15T00:04:35.626Z,4.42
2019-06-15T00:05:40.700Z,8.80
2019-06-15T00:06:45.136Z,6.42
2019-06-15T00:07:50.175Z,6.22
2019-06-15T00:08:54.652Z,8.23
2019-06-15T00:09:59.797Z,6.95
2019-06-15T00:11:05.310Z,11.65
2019-06-15T00:12:10.337Z,9.18
2019-06-15T00:13:14.713Z,9.40
2019-06-15T00:14:19.771Z,9.08
2019-06-15T00:15:24.237Z,11.78
2019-06-15T00:16:29.256Z,12.43
2019-06-15T00:17:33.701Z,12.55
2019-06-15T00:18:38.634Z,15.35
2019-06-15T00:19:43.093Z,13.95
2019-06-15T00:20:48.193Z,14.55
2019-06-15T00:21:52.695Z,15.45
2019-06-15T00:22:57.789Z,15.63
2019-06-15T00:24:02.118Z,16.52
2019-06-15T00:25:07.430Z,17.27
2019-06-15T00:26:12.005Z,17.35
2019-06-15T00:27:17.078Z,16.97
2019-06-15T00:28:21.469Z,18.30
2019-06-15T00:29:26.621Z,18.15
2019-06-15T00:30:31.036Z,19.70
2019-06-15T00:31:36.013Z,19.90
2019-06-15T00:32:40.421Z,18.50
2019-06-15T00:33:45.410Z,22.73
2019-06-15T00:34:49.942Z,22.75
2019-06-15T00:35:55.035Z,21.70
2019-06-15T00:36:59.459Z,25.27
2019-06-15T00:38:04.554Z,22.27
2019-06-15T00:39:09.292Z,21.40
2019-06-15T00:40:14.520Z,22.58
2019-06-15T00:41:18.893Z,24.70
2019-06-15T00:42:23.932Z,21.62
2019-06-15T00:43:28.332Z,23.20
2019-06-15T00:44:33.331Z,21.65
2019-06-15T00:45:37.885Z,24.23
2019-06-15T00:46:44.104Z,22.67
2019-06-15T00:47:48.473Z,22.25
2019-06-15T00:48:53.477Z,19.37
2019-06-15T00:49:57.837Z,17.00
2019-06-15T00:51:02.871Z,18.12
2019-06-15T00:52:07.308Z,13.25
2019-06-15T00:53:12.385Z,9.90
2019-06-15T00:54:16.693Z,9.88
2019-06-15T00:55:21.822Z,8.45
2019-06-15T00:56:26.289Z,8.13
2019-06-15T00:57:31.238Z,9.48
2019-06-15T00:58:35.594Z,7.75
2019-06-15T00:59:40.542Z,7.47
2019-06-15T01:00:45.297Z,9.00
2019-06-15T01:01:50.276Z,6.50
2019-06-15T01:02:54.625Z,8.70
2019-06-15T01:03:59.570Z,8.15
2019-06-15T01:05:04.036Z,8.00
2019-06-15T01:06:10.617Z,13.20
2019-06-15T01:07:15.051Z,13.20
2019-06-15T01:08:19.999Z,11.70
2019-06-15T01:09:24.479Z,9.83
2019-06-15T01:10:29.477Z,12.47
2019-06-15T01:11:33.960Z,13.58
2019-06-15T01:12:38.881Z,9.65
2019-06-15T01:13:43.391Z,16.30
2019-06-15T01:14:48.490Z,16.00
2019-06-15T01:15:53.156Z,19.70
2019-06-15T01:16:58.118Z,17.62
2019-06-15T01:18:02.461Z,20.43
2019-06-15T01:19:07.650Z,14.83
2019-06-15T01:20:13.946Z,16.93
2019-06-15T01:21:19.072Z,17.60
2019-06-15T01:22:23.489Z,17.73
2019-06-15T01:23:28.409Z,11.63
2019-06-15T01:24:32.917Z,13.05
2019-06-15T01:25:37.856Z,15.95
2019-06-15T01:26:45.248Z,16.07
2019-06-15T01:27:50.196Z,18.27
2019-06-15T01:28:54.609Z,11.75
2019-06-15T01:29:59.715Z,17.05
2019-06-15T01:31:04.214Z,12.10
2019-06-15T01:32:09.716Z,7.42
2019-06-15T01:33:14.350Z,7.97
2019-06-15T01:34:19.372Z,6.95
2019-06-15T01:35:23.729Z,8.28
2019-06-15T01:36:28.686Z,16.10
2019-06-15T01:37:33.124Z,15.38
2019-06-15T01:38:38.066Z,16.73
2019-06-15T01:39:42.433Z,15.53
2019-06-15T01:40:47.391Z,16.65
2019-06-15T01:41:51.999Z,18.42
2019-06-15T01:42:57.153Z,17.40
2019-06-15T01:44:01.525Z,18.42
2019-06-15T01:45:07.856Z,18.73
2019-06-15T01:46:12.327Z,15.20
2019-06-15T01:47:17.314Z,18.77
2019-06-15T01:48:21.718Z,20.85
2019-06-15T01:49:26.629Z,19.27
2019-06-15T01:50:30.987Z,24.50
2019-06-15T01:51:35.984Z,25.68
2019-06-15T01:52:40.513Z,23.77
2019-06-15T01:53:45.455Z,26.45
2019-06-15T01:54:49.831Z,24.20
2019-06-15T01:55:55.042Z,22.93
2019-06-15T01:56:59.535Z,13.25
2019-06-15T01:58:04.488Z,20.95
2019-06-15T01:59:09.063Z,14.78
2019-06-15T02:00:22.328Z,12.73
2019-06-15T02:01:26.714Z,11.53
2019-06-15T02:02:31.664Z,10.72
2019-06-15T02:03:36.064Z,10.18
2019-06-15T02:04:40.975Z,11.43
2019-06-15T02:05:45.299Z,8.40
2019-06-15T02:06:50.257Z,15.35
2019-06-15T02:07:54.741Z,22.02
2019-06-15T02:08:59.709Z,20.68
2019-06-15T02:10:04.546Z,20.68
2019-06-15T02:11:09.709Z,19.70
2019-06-15T02:12:14.400Z,20.20
2019-06-15T02:13:19.379Z,24.87
2019-06-15T02:14:23.780Z,20.95
2019-06-15T02:15:28.706Z,24.82
2019-06-15T02:16:33.381Z,24.57
2019-06-15T02:17:38.320Z,21.15
2019-06-15T02:18:42.674Z,11.70
2019-06-15T02:19:47.564Z,19.90
2019-06-15T02:20:51.920Z,11.43
2019-06-15T02:21:57.245Z,10.25
2019-06-15T02:23:02.351Z,10.23
2019-06-15T02:24:07.315Z,10.88
2019-06-15T02:25:12.136Z,11.12
2019-06-15T02:26:17.465Z,9.93
2019-06-15T02:27:21.948Z,10.90
2019-06-15T02:28:26.936Z,19.85
2019-06-15T02:29:31.353Z,16.07
2019-06-15T02:30:36.997Z,15.08
2019-06-15T02:31:41.334Z,16.93
2019-06-15T02:32:46.259Z,17.32
2019-06-15T02:33:50.702Z,18.85
2019-06-15T02:34:55.718Z,21.02
2019-06-15T02:36:00.117Z,20.57
2019-06-15T02:37:05.120Z,21.80
2019-06-15T02:38:10.796Z,23.90
2019-06-15T02:39:15.946Z,24.60
2019-06-15T02:40:20.481Z,26.68
2019-06-15T02:41:25.423Z,22.50
2019-06-15T02:42:29.838Z,12.60
2019-06-15T02:43:34.757Z,30.27
2019-06-15T02:44:39.207Z,29.60
2019-06-15T02:45:44.177Z,28.02
2019-06-15T02:46:48.600Z,25.23
2019-06-15T02:47:53.560Z,22.93
2019-06-15T02:48:57.932Z,22.73
2019-06-15T02:50:03.004Z,24.18
2019-06-15T02:51:07.462Z,26.07
2019-06-15T02:52:12.782Z,25.88
2019-06-15T02:53:17.356Z,29.15
2019-06-15T02:54:22.360Z,26.33
2019-06-15T02:55:26.705Z,28.30
2019-06-15T02:56:31.689Z,24.82
2019-06-15T02:57:36.534Z,27.05
2019-06-15T02:58:41.479Z,15.15
2019-06-15T02:59:45.897Z,17.32
2019-06-15T03:01:06.697Z,14.30
2019-06-15T03:02:11.186Z,20.40
2019-06-15T03:03:16.640Z,11.83
2019-06-15T03:04:21.041Z,10.18
2019-06-15T03:05:26.148Z,9.75
2019-06-15T03:06:30.510Z,14.70
2019-06-15T03:07:35.607Z,9.83
2019-06-15T03:08:40.144Z,8.80
2019-06-15T03:09:45.262Z,10.20
2019-06-15T03:10:49.729Z,8.48
2019-06-15T03:11:54.790Z,8.95
2019-06-15T03:12:59.369Z,6.90
2019-06-15T03:14:06.652Z,7.03
2019-06-15T03:15:11.641Z,8.93
2019-06-15T03:16:16.809Z,7.08
2019-06-15T03:17:21.279Z,6.78
2019-06-15T03:18:26.260Z,8.60
2019-06-15T03:19:30.673Z,6.95
2019-06-15T03:20:35.667Z,8.50
2019-06-15T03:21:40.088Z,8.43
2019-06-15T03:22:45.140Z,7.58
2019-06-15T03:23:49.510Z,6.25
2019-06-15T03:24:54.576Z,7.45
2019-06-15T03:26:05.573Z,7.10
2019-06-15T03:27:06.064Z,7.42
2019-06-15T03:28:10.885Z,6.45
2019-06-15T03:29:16.137Z,9.05
2019-06-15T03:30:22.155Z,8.33
2019-06-15T03:31:27.442Z,11.15
2019-06-15T03:32:31.762Z,14.25
2019-06-15T03:33:37.149Z,8.98
2019-06-15T03:34:41.508Z,7.50
2019-06-15T03:35:46.521Z,13.13
2019-06-15T03:36:51.021Z,8.30
2019-06-15T03:37:56.006Z,8.50
2019-06-15T03:39:00.364Z,7.50
2019-06-15T03:40:05.785Z,8.45
2019-06-15T03:41:10.463Z,6.80
2019-06-15T03:42:16.048Z,7.20
2019-06-15T03:43:20.591Z,6.92
2019-06-15T03:44:25.626Z,6.08
2019-06-15T03:45:30.086Z,6.92
2019-06-15T03:46:35.084Z,7.10
2019-06-15T03:47:39.499Z,7.87
2019-06-15T03:48:44.582Z,8.18
2019-06-15T03:49:50.053Z,7.53
2019-06-15T03:50:55.022Z,6.60
2019-06-15T03:51:59.615Z,8.88
2019-06-15T03:53:05.099Z,8.68
2019-06-15T03:54:09.656Z,10.82
2019-06-15T03:55:15.127Z,12.13
2019-06-15T03:56:21.990Z,9.45
2019-06-15T03:57:26.157Z,9.90
2019-06-15T03:58:30.521Z,11.33
2019-06-15T03:59:36.576Z,8.25
2019-06-15T04:00:46.313Z,8.08
2019-06-15T04:01:51.889Z,6.72
2019-06-15T04:02:56.388Z,9.65
2019-06-15T04:04:01.358Z,12.45
2019-06-15T04:05:07.868Z,7.28
2019-06-15T04:06:13.186Z,13.30
2019-06-15T04:07:17.625Z,8.05
2019-06-15T04:08:22.653Z,11.25
2019-06-15T04:09:27.371Z,10.85
2019-06-15T04:10:32.293Z,8.73
2019-06-15T04:11:37.218Z,6.33
2019-06-15T04:12:42.183Z,9.03
2019-06-15T04:13:46.531Z,7.50
2019-06-15T04:14:51.544Z,6.37
2019-06-15T04:15:55.873Z,8.58
2019-06-15T04:17:01.006Z,10.72
2019-06-15T04:18:05.421Z,8.18
2019-06-15T04:19:10.498Z,7.15
2019-06-15T04:20:15.050Z,5.95
2019-06-15T04:21:19.985Z,6.85
2019-06-15T04:22:24.464Z,6.87
2019-06-15T04:23:29.508Z,5.92
2019-06-15T04:24:33.843Z,6.97
2019-06-15T04:25:39.049Z,7.35
2019-06-15T04:26:43.413Z,6.67
2019-06-15T04:27:48.376Z,6.67
2019-06-15T04:28:52.742Z,8.03
2019-06-15T04:29:58.340Z,6.92
2019-06-15T04:31:02.702Z,9.63
2019-06-15T04:32:07.646Z,6.28
2019-06-15T04:33:12.892Z,7.62
2019-06-15T04:34:18.052Z,6.33
2019-06-15T04:35:22.412Z,6.37
2019-06-15T04:36:27.474Z,6.00
2019-06-15T04:37:31.905Z,5.53
2019-06-15T04:38:36.870Z,7.28
2019-06-15T04:39:41.349Z,6.28
2019-06-15T04:40:46.459Z,5.50
2019-06-15T04:41:51.024Z,7.17
2019-06-15T04:42:56.303Z,6.53
2019-06-15T04:44:00.877Z,5.75
2019-06-15T04:45:06.624Z,8.20
2019-06-15T04:46:11.100Z,13.22
2019-06-15T04:47:16.088Z,13.50
2019-06-15T04:48:20.532Z,7.50
2019-06-15T04:49:25.531Z,12.23
2019-06-15T04:50:29.900Z,9.60
2019-06-15T04:51:34.943Z,11.48
2019-06-15T04:52:39.519Z,11.80
2019-06-15T04:53:44.492Z,10.13
2019-06-15T04:54:48.828Z,8.00
2019-06-15T04:55:53.832Z,5.65
2019-06-15T04:56:58.228Z,4.97
2019-06-15T04:58:03.278Z,5.92
2019-06-15T04:59:07.869Z,6.95
2019-06-15T05:00:14.317Z,5.97
2019-06-15T05:01:18.749Z,5.35
2019-06-15T05:02:27.051Z,6.50
2019-06-15T05:03:29.773Z,5.33
2019-06-15T05:04:34.745Z,6.87
2019-06-15T05:05:41.902Z,5.80
2019-06-15T05:06:46.881Z,8.73
2019-06-15T05:07:51.201Z,5.62
2019-06-15T05:08:56.479Z,5.45
2019-06-15T05:10:01.427Z,6.03
2019-06-15T05:11:06.613Z,8.75
2019-06-15T05:12:13.578Z,4.90
2019-06-15T05:13:18.668Z,6.83
2019-06-15T05:14:23.124Z,6.62
2019-06-15T05:15:28.062Z,6.37
2019-06-15T05:16:32.434Z,6.42
2019-06-15T05:17:39.566Z,5.33
2019-06-15T05:18:43.892Z,5.87
2019-06-15T05:19:49.276Z,5.92
2019-06-15T05:20:53.691Z,5.45
2019-06-15T05:21:58.677Z,6.20
2019-06-15T05:23:03.211Z,6.17
2019-06-15T05:24:08.757Z,5.55
2019-06-15T05:25:14.460Z,6.15
2019-06-15T05:26:19.399Z,5.25
2019-06-15T05:27:23.878Z,7.30
2019-06-15T05:28:28.855Z,6.17
2019-06-15T05:29:33.229Z,5.53
2019-06-15T05:30:38.347Z,6.75
2019-06-15T05:31:42.840Z,6.67
2019-06-15T05:32:47.784Z,7.00
2019-06-15T05:33:52.193Z,7.47
2019-06-15T05:34:57.214Z,7.05
2019-06-15T05:36:01.701Z,6.87
2019-06-15T05:37:06.628Z,11.43
2019-06-15T05:38:11.956Z,11.95
2019-06-15T05:39:17.048Z,12.25
2019-06-15T05:40:23.082Z,10.40
2019-06-15T05:41:28.134Z,7.87
2019-06-15T05:42:32.549Z,14.23
2019-06-15T05:43:37.796Z,8.33
2019-06-15T05:44:42.224Z,8.80
2019-06-15T05:45:47.404Z,12.88
2019-06-15T05:46:51.857Z,11.18
2019-06-15T05:47:56.951Z,8.40
2019-06-15T05:49:01.404Z,7.00
2019-06-15T05:50:07.374Z,7.87
2019-06-15T05:51:12.227Z,6.90
2019-06-15T05:52:17.286Z,6.83
2019-06-15T05:53:21.661Z,6.25
2019-06-15T05:54:27.709Z,9.05
2019-06-15T05:55:32.277Z,10.00
2019-06-15T05:56:37.327Z,9.23
2019-06-15T05:57:41.786Z,9.98
2019-06-15T05:58:46.822Z,9.68
2019-06-15T05:59:51.892Z,8.80
2019-06-15T06:00:56.910Z,9.68
2019-06-15T06:02:01.262Z,11.73
2019-06-15T06:03:06.257Z,14.05
2019-06-15T06:04:11.218Z,12.13
2019-06-15T06:05:16.692Z,12.47
2019-06-15T06:06:21.333Z,10.78
2019-06-15T06:07:26.413Z,8.45
2019-06-15T06:08:30.898Z,8.63
2019-06-15T06:09:35.892Z,12.35
2019-06-15T06:10:40.382Z,12.07
2019-06-15T06:11:45.409Z,8.10
2019-06-15T06:12:49.813Z,7.37
2019-06-15T06:13:54.755Z,7.05
2019-06-15T06:14:59.965Z,9.83
2019-06-15T06:16:05.386Z,8.23
2019-06-15T06:17:10.352Z,10.63
2019-06-15T06:18:15.581Z,12.85
2019-06-15T06:19:19.961Z,7.87
2019-06-15T06:20:25.099Z,10.40
2019-06-15T06:21:29.794Z,9.18
2019-06-15T06:22:34.796Z,8.80
2019-06-15T06:23:39.523Z,7.45
2019-06-15T06:24:44.653Z,8.70
2019-06-15T06:25:49.041Z,7.92
2019-06-15T06:26:54.084Z,8.68
2019-06-15T06:27:58.512Z,7.67
2019-06-15T06:29:03.665Z,10.30
2019-06-15T06:30:08.369Z,8.60
2019-06-15T06:31:13.700Z,12.53
2019-06-15T06:32:18.373Z,12.63
2019-06-15T06:33:23.398Z,8.65
2019-06-15T06:34:27.973Z,12.75
2019-06-15T06:35:33.016Z,11.57
2019-06-15T06:36:37.827Z,9.98
2019-06-15T06:37:43.063Z,10.13
2019-06-15T06:38:47.686Z,9.83
2019-06-15T06:39:52.769Z,13.20
2019-06-15T06:40:59.820Z,10.20
2019-06-15T06:42:05.432Z,9.75
2019-06-15T06:43:10.281Z,11.40
2019-06-15T06:44:15.779Z,11.40
2019-06-15T06:45:20.709Z,11.50
2019-06-15T06:46:26.126Z,10.23
2019-06-15T06:47:30.836Z,13.05
2019-06-15T06:48:36.279Z,10.20
2019-06-15T06:49:40.809Z,10.30
2019-06-15T06:50:46.959Z,9.65
2019-06-15T06:51:51.456Z,12.85
2019-06-15T06:52:57.151Z,9.28
2019-06-15T06:54:01.719Z,8.88
2019-06-15T06:55:07.604Z,10.05
2019-06-15T06:56:14.795Z,11.12
2019-06-15T06:57:20.119Z,12.20
2019-06-15T06:58:24.771Z,8.78
2019-06-15T06:59:30.843Z,8.75
2019-06-15T07:00:35.469Z,10.43
2019-06-15T07:01:40.906Z,11.12
2019-06-15T07:02:45.566Z,8.88
2019-06-15T07:03:50.633Z,9.30
2019-06-15T07:04:55.067Z,9.55
2019-06-15T07:06:00.298Z,8.83
2019-06-15T07:07:04.808Z,8.63
2019-06-15T07:08:11.110Z,9.20
2019-06-15T07:09:15.876Z,7.85
2019-06-15T07:10:21.073Z,8.43
2019-06-15T07:11:25.957Z,9.10
2019-06-15T07:12:30.932Z,8.48
2019-06-15T07:13:35.951Z,7.22
2019-06-15T07:14:41.064Z,6.42
2019-06-15T07:15:45.470Z,6.47
2019-06-15T07:16:50.614Z,6.60
2019-06-15T07:17:56.071Z,8.00
2019-06-15T07:19:01.488Z,7.97
2019-06-15T07:20:06.438Z,5.12
2019-06-15T07:21:12.795Z,7.70
2019-06-15T07:22:19.703Z,7.20
2019-06-15T07:23:24.859Z,6.58
2019-06-15T07:24:29.290Z,5.22
2019-06-15T07:25:34.423Z,6.30
2019-06-15T07:26:38.834Z,5.85
2019-06-15T07:27:43.933Z,5.60
2019-06-15T07:28:48.452Z,5.10
2019-06-15T07:29:53.521Z,8.15
2019-06-15T07:30:58.043Z,5.60
2019-06-15T07:32:03.402Z,6.37
2019-06-15T07:33:07.928Z,5.87
2019-06-15T07:34:13.428Z,5.28
2019-06-15T07:35:17.885Z,6.70
2019-06-15T07:36:22.950Z,5.25
2019-06-15T07:37:27.370Z,8.73
2019-06-15T07:38:32.386Z,5.33
2019-06-15T07:39:36.821Z,7.37
2019-06-15T07:40:42.178Z,6.53
2019-06-15T07:41:46.713Z,8.00
2019-06-15T07:42:51.689Z,5.50
2019-06-15T07:43:56.364Z,10.20
2019-06-15T07:45:01.473Z,5.42
2019-06-15T07:46:05.992Z,5.33
2019-06-15T07:47:11.345Z,7.25
2019-06-15T07:48:15.995Z,6.50
2019-06-15T07:49:21.077Z,5.40
2019-06-15T07:50:25.521Z,6.83
2019-06-15T07:51:30.864Z,6.78
2019-06-15T07:52:35.544Z,7.45
2019-06-15T07:53:40.478Z,4.97
2019-06-15T07:54:45.004Z,8.90
2019-06-15T07:55:50.111Z,12.55
2019-06-15T07:56:57.995Z,8.23
2019-06-15T07:58:03.452Z,10.38
2019-06-15T07:59:08.312Z,11.80
2019-06-15T08:00:20.234Z,10.90
2019-06-15T08:01:24.689Z,13.30
2019-06-15T08:02:30.789Z,13.60
2019-06-15T08:03:35.696Z,19.70
2019-06-15T08:04:40.872Z,15.83
2019-06-15T08:05:45.282Z,19.02
2019-06-15T08:06:50.283Z,18.37
2019-06-15T08:07:54.854Z,19.57
2019-06-15T08:08:59.983Z,22.10
2019-06-15T08:10:05.042Z,22.70
2019-06-15T08:11:12.175Z,21.73
2019-06-15T08:12:16.816Z,23.90
2019-06-15T08:13:21.924Z,21.80
2019-06-15T08:14:26.681Z,21.87
2019-06-15T08:15:32.602Z,27.07
2019-06-15T08:16:37.419Z,23.05
2019-06-15T08:17:45.553Z,28.67
2019-06-15T08:18:49.726Z,24.80
2019-06-15T08:20:00.866Z,25.17
2019-06-15T08:21:06.833Z,22.90
2019-06-15T08:22:19.494Z,25.80
2019-06-15T08:23:28.081Z,28.77
2019-06-15T08:24:33.151Z,27.15
2019-06-15T08:25:39.370Z,29.40
2019-06-15T08:26:44.640Z,30.82
2019-06-15T08:27:53.222Z,25.32
2019-06-15T08:30:02.793Z,28.73
2019-06-15T08:31:08.197Z,28.83
2019-06-15T08:32:16.971Z,29.02
2019-06-15T08:33:22.204Z,29.10
2019-06-15T08:34:26.997Z,28.05
2019-06-15T08:35:32.135Z,26.07
2019-06-15T08:36:37.482Z,27.25
2019-06-15T08:37:43.281Z,25.55
2019-06-15T08:38:48.447Z,25.57
2019-06-15T08:39:53.610Z,22.22
2019-06-15T08:41:00.038Z,23.55
2019-06-15T08:42:06.103Z,25.72
2019-06-15T08:43:16.242Z,22.70
2019-06-15T08:44:22.014Z,23.70
2019-06-15T08:45:27.593Z,21.70
2019-06-15T08:46:34.719Z,20.15
2019-06-15T08:47:40.028Z,21.15
2019-06-15T08:48:45.105Z,22.10
2019-06-15T08:49:49.600Z,22.10
2019-06-15T08:50:55.265Z,22.80
2019-06-15T08:51:59.851Z,20.75
2019-06-15T08:53:05.402Z,20.32
2019-06-15T08:54:13.758Z,23.22
2019-06-15T08:55:19.316Z,21.27
2019-06-15T08:56:28.908Z,19.35
2019-06-15T08:57:36.070Z,19.65
2019-06-15T08:58:55.182Z,21.60
2019-06-15T08:59:54.224Z,17.48
2019-06-15T09:00:59.308Z,20.60
2019-06-15T09:02:07.556Z,19.82
2019-06-15T09:03:18.190Z,19.82
2019-06-15T09:04:24.442Z,18.40
2019-06-15T09:05:29.494Z,18.23
2019-06-15T09:06:35.735Z,18.00
2019-06-15T09:07:40.825Z,18.20
2019-06-15T09:08:46.814Z,22.00
2019-06-15T09:09:52.017Z,18.82
2019-06-15T09:10:58.638Z,22.70
2019-06-15T09:12:05.560Z,19.00
2019-06-15T09:13:12.549Z,20.57
2019-06-15T09:14:17.587Z,21.00
2019-06-15T09:15:37.634Z,20.57
2019-06-15T09:16:42.705Z,20.60
2019-06-15T09:17:49.073Z,19.95
2019-06-15T09:18:56.695Z,21.20
2019-06-15T09:20:02.100Z,19.87
2019-06-15T09:21:08.098Z,19.27
2019-06-15T09:22:19.792Z,19.65
2019-06-15T09:23:24.954Z,18.20
2019-06-15T09:24:31.604Z,19.52
2019-06-15T09:25:37.296Z,17.60
2019-06-15T09:26:46.358Z,16.60
2019-06-15T09:27:50.989Z,17.10
2019-06-15T09:29:10.162Z,16.37
2019-06-15T09:30:06.749Z,17.27
2019-06-15T09:31:19.403Z,16.15
2019-06-15T09:32:25.451Z,14.43
2019-06-15T09:33:33.413Z,12.60
2019-06-15T09:34:39.517Z,13.03
2019-06-15T09:35:46.343Z,12.58
2019-06-15T09:36:52.104Z,12.25
2019-06-15T09:37:59.510Z,14.07
2019-06-15T09:39:06.697Z,13.38
2019-06-15T09:40:15.440Z,11.12
2019-06-15T09:41:20.916Z,11.18
2019-06-15T09:42:26.912Z,11.73
2019-06-15T09:43:32.482Z,12.45
2019-06-15T09:44:38.951Z,12.23
2019-06-15T09:45:44.438Z,11.90
2019-06-15T09:46:50.840Z,13.18
2019-06-15T09:47:56.199Z,11.55
2019-06-15T09:49:02.255Z,10.08
2019-06-15T09:50:07.630Z,9.83
2019-06-15T09:51:13.835Z,10.68
2019-06-15T09:52:21.492Z,10.00
2019-06-15T09:53:26.645Z,9.93
2019-06-15T09:54:31.173Z,8.78
2019-06-15T09:55:36.222Z,8.78
2019-06-15T09:56:40.763Z,11.65
2019-06-15T09:57:45.835Z,8.90
2019-06-15T09:58:50.399Z,9.80
2019-06-15T09:59:57.013Z,11.50
2019-06-15T10:01:01.522Z,10.55
2019-06-15T10:02:07.026Z,13.00
2019-06-15T10:03:12.163Z,9.00
2019-06-15T10:04:20.279Z,9.63
2019-06-15T10:05:24.903Z,8.45
2019-06-15T10:06:31.394Z,8.75
2019-06-15T10:07:35.853Z,8.43
2019-06-15T10:08:41.476Z,7.60
2019-06-15T10:09:46.063Z,8.18
2019-06-15T10:10:51.287Z,8.58
2019-06-15T10:11:55.772Z,8.15
2019-06-15T10:13:01.083Z,8.90
2019-06-15T10:14:05.830Z,10.85
2019-06-15T10:15:14.994Z,8.68
2019-06-15T10:16:19.605Z,10.45
2019-06-15T10:17:24.773Z,8.53
2019-06-15T10:18:29.418Z,9.93
2019-06-15T10:19:34.770Z,10.40
2019-06-15T10:20:39.459Z,8.73
2019-06-15T10:21:44.780Z,8.88
2019-06-15T10:22:49.859Z,9.63
2019-06-15T10:23:55.236Z,12.40
2019-06-15T10:24:59.727Z,10.03
2019-06-15T10:26:05.119Z,9.70
2019-06-15T10:27:10.982Z,7.92
2019-06-15T10:28:16.351Z,9.78
2019-06-15T10:29:20.969Z,9.35
2019-06-15T10:30:26.054Z,8.45
2019-06-15T10:31:30.680Z,9.25
2019-06-15T10:32:35.822Z,9.08
2019-06-15T10:33:40.544Z,8.43
2019-06-15T10:34:45.836Z,8.28
2019-06-15T10:35:50.522Z,7.62
2019-06-15T10:36:55.938Z,8.93
2019-06-15T10:38:00.706Z,8.88
2019-06-15T10:39:07.266Z,8.85
2019-06-15T10:40:15.148Z,8.28
2019-06-15T10:41:22.597Z,8.15
2019-06-15T10:42:27.286Z,10.30
2019-06-15T10:43:32.516Z,7.25
2019-06-15T10:44:37.427Z,8.50
2019-06-15T10:45:42.689Z,5.83
2019-06-15T10:46:47.326Z,7.42
2019-06-15T10:47:52.445Z,5.45
2019-06-15T10:48:57.031Z,6.60
2019-06-15T10:50:02.141Z,7.83
2019-06-15T10:51:06.805Z,7.50
2019-06-15T10:52:12.577Z,8.18
2019-06-15T10:53:17.271Z,8.25
2019-06-15T10:54:22.615Z,9.05
2019-06-15T10:55:27.145Z,13.78
2019-06-15T10:56:32.484Z,8.73
2019-06-15T10:57:37.134Z,10.75
2019-06-15T10:58:43.424Z,9.23
2019-06-15T10:59:56.907Z,9.35
2019-06-15T11:00:54.988Z,8.53
2019-06-15T11:01:59.778Z,11.03
2019-06-15T11:03:06.458Z,10.82
2019-06-15T11:04:14.301Z,16.45
2019-06-15T11:05:21.936Z,9.68
2019-06-15T11:06:26.767Z,9.75
2019-06-15T11:07:32.384Z,12.70
2019-06-15T11:08:37.345Z,13.70
2019-06-15T11:09:42.364Z,13.32
2019-06-15T11:10:54.235Z,11.35
2019-06-15T11:11:59.258Z,11.00
2019-06-15T11:13:03.842Z,11.80
2019-06-15T11:14:11.163Z,12.88
2019-06-15T11:15:16.485Z,13.20
2019-06-15T11:16:40.538Z,13.35
2019-06-15T11:17:44.999Z,10.98
2019-06-15T11:18:50.146Z,13.08
2019-06-15T11:19:54.774Z,10.48
2019-06-15T11:21:00.575Z,12.33
2019-06-15T11:22:05.048Z,12.35
2019-06-15T11:23:10.400Z,11.53
2019-06-15T11:24:15.137Z,11.40
2019-06-15T11:25:20.273Z,12.85
2019-06-15T11:26:24.794Z,11.60
2019-06-15T11:27:29.963Z,11.18
2019-06-15T11:28:34.418Z,11.68
2019-06-15T11:29:39.524Z,12.07
2019-06-15T11:30:44.015Z,11.70
2019-06-15T11:31:50.088Z,12.07
2019-06-15T11:32:54.555Z,10.93
2019-06-15T11:33:59.679Z,10.88
2019-06-15T11:35:04.776Z,10.63
2019-06-15T11:36:10.070Z,8.90
2019-06-15T11:37:14.948Z,9.98
2019-06-15T11:38:21.261Z,10.53
2019-06-15T11:39:25.754Z,9.40
2019-06-15T11:40:30.831Z,10.20
2019-06-15T11:41:36.772Z,8.88
2019-06-15T11:42:41.911Z,8.90
2019-06-15T11:43:46.415Z,9.70
2019-06-15T11:44:53.601Z,9.80
2019-06-15T11:46:10.618Z,9.58
2019-06-15T11:47:16.080Z,9.33
2019-06-15T11:48:20.721Z,9.30
2019-06-15T11:49:25.858Z,9.30
2019-06-15T11:50:30.454Z,10.72
2019-06-15T11:51:35.610Z,8.68
2019-06-15T11:52:40.349Z,10.55
2019-06-15T11:53:45.444Z,9.10
2019-06-15T11:54:49.896Z,8.98
2019-06-15T11:55:54.927Z,8.55
2019-06-15T11:56:59.374Z,10.25
2019-06-15T11:58:04.517Z,9.75
2019-06-15T11:59:08.940Z,11.30
2019-06-15T12:00:30.322Z,10.75
2019-06-15T12:01:20.749Z,8.85
2019-06-15T12:02:25.899Z,10.08
2019-06-15T12:03:31.998Z,9.33
2019-06-15T12:04:37.069Z,9.23
2019-06-15T12:05:41.728Z,9.75
2019-06-15T12:06:50.522Z,9.53
2019-06-15T12:07:55.012Z,9.53
2019-06-15T12:09:00.098Z,7.72
2019-06-15T12:10:04.638Z,7.67
2019-06-15T12:11:09.804Z,6.92
2019-06-15T12:12:14.620Z,6.83
2019-06-15T12:13:19.593Z,6.90
2019-06-15T12:14:24.086Z,7.12
2019-06-15T12:15:29.342Z,5.40
2019-06-15T12:16:33.797Z,4.67
2019-06-15T12:17:38.911Z,4.30
2019-06-15T12:18:43.599Z,3.95
2019-06-15T12:19:49.686Z,4.37
2019-06-15T12:20:54.135Z,3.95
2019-06-15T12:21:59.233Z,3.47
2019-06-15T12:23:03.766Z,4.25
2019-06-15T12:24:09.028Z,3.02
2019-06-15T12:25:14.169Z,3.20
2019-06-15T12:26:19.274Z,2.87
2019-06-15T12:27:25.085Z,4.67
2019-06-15T12:28:30.306Z,6.83
2019-06-15T12:29:34.885Z,3.15
2019-06-15T12:30:47.256Z,2.75
2019-06-15T12:31:47.140Z,2.55
2019-06-15T12:32:52.400Z,3.60
2019-06-15T12:33:56.964Z,2.95
2019-06-15T12:35:02.148Z,3.02
2019-06-15T12:36:18.701Z,2.90
2019-06-15T12:37:13.943Z,2.72
2019-06-15T12:38:18.623Z,5.10
2019-06-15T12:39:24.406Z,2.90
2019-06-15T12:40:29.044Z,3.67
2019-06-15T12:41:53.193Z,3.10
2019-06-15T12:42:57.884Z,3.72
2019-06-15T12:44:03.186Z,2.83
2019-06-15T12:45:07.967Z,3.30
2019-06-15T12:46:13.684Z,2.37
2019-06-15T12:47:18.208Z,3.10
2019-06-15T12:48:23.446Z,3.45
2019-06-15T12:49:27.987Z,3.45
2019-06-15T12:50:33.086Z,3.55
2019-06-15T12:51:40.610Z,3.47
2019-06-15T12:52:44.311Z,2.85
2019-06-15T12:53:48.748Z,3.10
2019-06-15T12:54:53.843Z,2.83
2019-06-15T12:55:58.287Z,2.30
2019-06-15T12:57:03.381Z,3.75
2019-06-15T12:58:07.831Z,3.37
2019-06-15T12:59:13.559Z,3.30
2019-06-15T13:00:18.291Z,3.30
2019-06-15T13:01:23.306Z,3.08
2019-06-15T13:02:27.746Z,2.52
2019-06-15T13:03:33.033Z,4.15
2019-06-15T13:04:37.516Z,2.72
2019-06-15T13:05:42.758Z,3.00
2019-06-15T13:06:47.429Z,3.40
2019-06-15T13:07:52.462Z,2.50
2019-06-15T13:08:56.977Z,3.22
2019-06-15T13:10:02.396Z,4.05
2019-06-15T13:11:07.241Z,3.27
2019-06-15T13:12:12.783Z,6.00
2019-06-15T13:13:17.899Z,4.30
2019-06-15T13:14:23.325Z,3.80
2019-06-15T13:15:27.869Z,2.65
2019-06-15T13:16:39.325Z,2.80
2019-06-15T13:17:41.560Z,2.92
2019-06-15T13:18:46.769Z,2.95
2019-06-15T13:19:51.535Z,2.30
2019-06-15T13:20:56.681Z,4.40
2019-06-15T13:22:01.324Z,2.50
2019-06-15T13:23:06.400Z,2.90
2019-06-15T13:24:11.134Z,2.83
2019-06-15T13:25:16.879Z,3.15
2019-06-15T13:26:21.551Z,1.80
2019-06-15T13:27:26.632Z,2.98
2019-06-15T13:28:32.233Z,2.17
2019-06-15T13:29:37.593Z,3.00
2019-06-15T13:30:42.428Z,3.37
2019-06-15T13:31:47.829Z,1.60
2019-06-15T13:32:59.606Z,3.08
2019-06-15T13:34:04.692Z,2.33
2019-06-15T13:35:09.879Z,1.98
2019-06-15T13:36:15.412Z,2.95
2019-06-15T13:37:21.270Z,2.10
2019-06-15T13:38:26.281Z,5.35
2019-06-15T13:39:31.029Z,8.03
2019-06-15T13:40:36.246Z,6.28
2019-06-15T13:41:40.835Z,5.65
2019-06-15T13:42:46.174Z,2.35
2019-06-15T13:43:51.906Z,4.12
2019-06-15T13:44:57.077Z,3.35
2019-06-15T13:46:01.823Z,7.35
2019-06-15T13:47:07.001Z,3.30
2019-06-15T13:48:11.970Z,4.50
2019-06-15T13:49:18.961Z,5.37
2019-06-15T13:50:23.674Z,3.35
2019-06-15T13:51:28.756Z,3.22
2019-06-15T13:52:33.294Z,4.08
2019-06-15T13:53:38.381Z,2.05
2019-06-15T13:54:42.828Z,2.62
2019-06-15T13:55:47.918Z,2.65
2019-06-15T13:56:52.515Z,1.95
2019-06-15T13:57:59.287Z,2.37
2019-06-15T13:59:04.138Z,3.17
2019-06-15T14:00:09.951Z,1.90
2019-06-15T14:01:15.169Z,1.87
2019-06-15T14:02:20.396Z,2.33
2019-06-15T14:03:25.980Z,1.75
2019-06-15T14:04:31.012Z,1.90
2019-06-15T14:05:35.467Z,1.70
2019-06-15T14:06:40.559Z,1.47
2019-06-15T14:07:46.265Z,3.05
2019-06-15T14:08:52.581Z,2.50
2019-06-15T14:09:57.197Z,1.90
2019-06-15T14:11:02.230Z,2.40
2019-06-15T14:12:06.729Z,1.65
2019-06-15T14:13:11.957Z,1.57
2019-06-15T14:14:17.717Z,1.67
2019-06-15T14:15:22.848Z,2.22
2019-06-15T14:16:27.303Z,2.95
2019-06-15T14:17:33.387Z,1.80